M I D A S
Marine Information and Data Acquisition System
Tripno 2148 of the Zeeleeuw from 2011-07-19 06:41:00 to 2011-07-19 14:12:29
Back to CruiseResearch ActivitiesStationsMapUnderway DataData graphs

EquipmentUnitsComment
TimeDGPSUTC
LatitudeDGPSDM.mWGS84
LongitudeDGPSDM.mWGS84
TemperatureSBE03/SBE38deg celciusITS90
ConductivitySBE21S/mITS90
SalinitySBE21 Practical Salinity Units
ChlorophylAChelsea fluorimeterg/lCalibrated in Aceton
Missing or incorrect values are displayed as -999
Sea surface data collected by the RV Zeeleeuw from 2011-07-19 06:43:17 to 2011-07-19 14:18:08
Time Latitude Longitude Temperature Conductivity Salinity ChlorophylA
2011-07-19 06:44:24 51°13.642 2°55.994 20.3582 0.061731 0.347337 -3.020363
2011-07-19 06:45:26 51°13.671 2°55.889 20.372 0.061731 0.347331 -3.020363
2011-07-19 06:46:26 51°13.689 2°55.779 20.3739 0.061731 0.347395 -3.020363
2011-07-19 06:47:27 51°13.697 2°55.753 20.354 0.061731 0.347414 -3.020363
2011-07-19 06:48:26 51°13.688 2°55.743 20.3598 0.061731 0.347388 -3.020363
2011-07-19 06:49:26 51°13.703 2°55.729 20.4118 0.061731 0.347459 -3.020363
2011-07-19 06:50:26 51°13.785 2°55.666 20.354 0.061731 0.347459 -3.020363
2011-07-19 06:51:26 51°13.908 2°55.586 20.374 0.061731 0.347478 -3.020363
2011-07-19 06:52:25 51°14.04 2°55.484 20.3851 0.061628 0.346919 -3.020363
2011-07-19 06:53:25 51°14.184 2°55.369 20.3779 0.061628 0.346945 -3.020363
2011-07-19 06:54:26 51°14.334 2°55.235 20.395 0.061731 0.347561 -3.020363
2011-07-19 06:55:25 51°14.484 2°55.089 20.3043 0.061628 0.346983 -3.020363
2011-07-19 06:56:23 51°14.642 2°54.9 20.2775 0.061628 0.346977 -3.020363
2011-07-19 06:57:21 51°14.812 2°54.715 17.3668 1.102552 7.193016 -3.020363
2011-07-19 06:58:22 51°14.999 2°54.543 17.1981 4.331792 33.212688 -3.020363
2011-07-19 06:59:22 51°15.162 2°54.326 17.1175 4.364669 33.621789 -3.020363
2011-07-19 07:00:22 51°15.337 2°54.126 17.0636 4.370789 33.739594 -3.020363
2011-07-19 07:01:22 51°15.504 2°53.908 17.0543 4.364982 33.729113 -3.020363
2011-07-19 07:02:22 51°15.676 2°53.711 17.021 4.383858 33.908555 -3.020363
2011-07-19 07:03:22 51°15.843 2°53.499 17.0268 4.408128 34.136398 -3.020363
2011-07-19 07:04:22 51°16.032 2°53.345 16.9958 4.413936 34.201778 -3.020363
2011-07-19 07:05:22 51°16.219 2°53.187 16.9893 4.418604 34.251162 -3.020363
2011-07-19 07:06:22 51°16.405 2°53.026 16.9434 4.429806 34.368997 -3.020363
2011-07-19 07:07:22 51°16.595 2°52.877 16.8596 4.430429 34.415744 -3.020363
2011-07-19 07:08:22 51°16.787 2°52.742 16.8136 4.424103 34.423537 -3.020363
2011-07-19 07:09:22 51°16.974 2°52.591 16.7802 4.42317 34.454173 -3.020363
2011-07-19 07:10:22 51°17.169 2°52.466 16.7686 4.420889 34.45299 -3.020363
2011-07-19 07:11:22 51°17.363 2°52.333 16.7605 4.419541 34.454405 -3.020363
2011-07-19 07:12:22 51°17.554 2°52.188 16.8296 4.419333 34.444965 -3.020363
2011-07-19 07:13:22 51°17.748 2°52.053 16.8671 4.424415 34.431089 -3.020363
2011-07-19 07:14:22 51°17.94 2°51.914 16.8189 4.428667 34.456369 -3.020363
2011-07-19 07:15:22 51°18.13 2°51.764 16.7928 4.425971 34.473739 -3.020363
2011-07-19 07:16:21 51°18.322 2°51.629 16.7916 4.425038 34.480164 -3.020363
2011-07-19 07:17:21 51°18.515 2°51.483 16.7947 4.425141 34.481069 -3.020363
2011-07-19 07:18:22 51°18.71 2°51.328 16.7957 4.425245 34.48128 -3.020363
2011-07-19 07:19:22 51°18.907 2°51.194 16.7948 4.425452 34.482396 -3.020363
2011-07-19 07:20:21 51°19.098 2°51.054 16.796 4.42566 34.484899 -3.020363
2011-07-19 07:21:23 51°19.3 2°50.909 16.8065 4.426282 34.487552 -3.020363
2011-07-19 07:22:21 51°19.487 2°50.765 16.8324 4.427942 34.489536 -3.020363
2011-07-19 07:23:23 51°19.688 2°50.615 16.8589 4.430431 34.488354 -3.020363
2011-07-19 07:24:21 51°19.875 2°50.461 16.8868 4.432712 34.488141 -3.020363
2011-07-19 07:25:23 51°20.081 2°50.321 16.9233 4.435201 34.485586 -3.020363
2011-07-19 07:26:21 51°20.27 2°50.177 16.9767 4.439453 34.485242 -3.020363
2011-07-19 07:27:21 51°20.463 2°50.022 17.0325 4.445157 34.487176 -3.020363
2011-07-19 07:28:21 51°20.66 2°49.881 17.0388 4.449825 34.490461 -3.020363
2011-07-19 07:29:21 51°20.852 2°49.728 16.9714 4.450136 34.498677 -3.020363
2011-07-19 07:30:21 51°21.048 2°49.591 16.9204 4.443084 34.505752 -3.020363
2011-07-19 07:31:21 51°21.241 2°49.439 16.9177 4.438831 34.491582 -3.020363
2011-07-19 07:32:23 51°21.446 2°49.294 16.8988 4.438001 34.487129 -3.020363
2011-07-19 07:33:21 51°21.631 2°49.138 16.8665 4.435927 34.491906 -3.020363
2011-07-19 07:34:23 51°21.83 2°48.977 16.8502 4.433542 34.493984 -3.020363
2011-07-19 07:35:21 51°22.015 2°48.819 16.8494 4.432609 34.496245 -3.020363
2011-07-19 07:36:21 51°22.205 2°48.654 16.8469 4.432194 34.494709 -3.020363
2011-07-19 07:37:21 51°22.4 2°48.506 16.8365 4.431883 34.495463 -3.020363
2011-07-19 07:38:21 51°22.589 2°48.341 16.8217 4.431157 34.496068 -3.020363
2011-07-19 07:39:21 51°22.785 2°48.194 16.8029 4.429705 34.497974 -3.020363
2011-07-19 07:40:21 51°22.975 2°48.026 16.7873 4.428357 34.501481 -3.020363
2011-07-19 07:41:23 51°23.175 2°47.869 16.7724 4.427216 34.506109 -3.020363
2011-07-19 07:42:21 51°23.359 2°47.711 16.7841 4.426594 34.509015 -3.020363
2011-07-19 07:43:23 51°23.558 2°47.549 16.7757 4.427631 34.506951 -3.020363
2011-07-19 07:44:21 51°23.747 2°47.406 16.7493 4.426697 34.512005 -3.020363
2011-07-19 07:45:23 51°23.942 2°47.233 16.7343 4.424105 34.510222 -3.020363
2011-07-19 07:46:21 51°24.123 2°47.07 16.7383 4.422549 34.507066 -3.020363
2011-07-19 07:47:21 51°24.317 2°46.924 16.7597 4.42369 34.507294 -3.020363
2011-07-19 07:48:22 51°24.509 2°46.761 16.7571 4.425038 34.505859 -3.020363
2011-07-19 07:49:21 51°24.696 2°46.607 16.7511 4.424831 34.508218 -3.020363
2011-07-19 07:50:21 51°24.887 2°46.453 16.7537 4.424727 34.509398 -3.020363
2011-07-19 07:51:21 51°25.075 2°46.287 16.7851 4.425349 34.51066 -3.020363
2011-07-19 07:52:21 51°25.263 2°46.125 16.8308 4.427423 34.495421 -3.020363
2011-07-19 07:53:21 51°25.461 2°45.996 16.8643 4.430638 34.486696 -3.020363
2011-07-19 07:54:21 51°25.656 2°45.857 16.8994 4.432712 34.479832 -3.020363
2011-07-19 07:55:21 51°25.851 2°45.713 16.934 4.435616 34.473287 -3.020363
2011-07-19 07:56:21 51°26.05 2°45.588 16.9302 4.437897 34.468949 -3.020363
2011-07-19 07:57:21 51°26.246 2°45.452 16.8774 4.437172 34.481984 -3.020363
2011-07-19 07:58:21 51°26.44 2°45.313 16.8386 4.433749 34.492327 -3.020363
2011-07-19 07:59:21 51°26.633 2°45.167 16.8122 4.431157 34.498148 -3.020363
2011-07-19 08:00:21 51°26.829 2°45.033 16.7941 4.43012 34.506448 -3.020363
2011-07-19 08:01:21 51°27.024 2°44.898 16.7874 4.42929 34.513095 -3.020363
2011-07-19 08:02:21 51°27.219 2°44.756 16.7851 4.42929 34.517957 -3.020363
2011-07-19 08:03:21 51°27.412 2°44.608 16.7802 4.429394 34.521641 -3.020363
2011-07-19 08:04:21 51°27.608 2°44.473 16.7871 4.429083 34.521011 -3.020363
2011-07-19 08:05:21 51°27.805 2°44.344 16.8101 4.43012 34.521029 -3.020363
2011-07-19 08:06:21 51°27.997 2°44.195 16.8326 4.431987 34.51787 -3.020363
2011-07-19 08:07:21 51°28.189 2°44.051 16.8522 4.43375 34.514507 -3.020363
2011-07-19 08:08:23 51°28.389 2°43.914 16.8909 4.435202 34.509133 -3.020363
2011-07-19 08:09:21 51°28.574 2°43.772 16.9156 4.437898 34.499371 -3.020363
2011-07-19 08:10:21 51°28.769 2°43.638 16.9319 4.439765 34.496245 -3.020363
2011-07-19 08:11:21 51°28.962 2°43.493 16.9434 4.440905 34.494415 -3.020363
2011-07-19 08:12:21 51°29.159 2°43.371 16.9138 4.441839 34.499768 -3.020363
2011-07-19 08:13:21 51°29.35 2°43.227 16.8962 4.440595 34.512459 -3.020363
2011-07-19 08:14:21 51°29.547 2°43.121 16.8894 4.439765 34.517006 -3.020363
2011-07-19 08:15:21 51°29.749 2°43.166 16.8842 4.438728 34.513517 -3.020363
2011-07-19 08:16:21 51°29.949 2°43.231 16.8843 4.438728 34.515594 -3.020363
2011-07-19 08:17:23 51°30.158 2°43.296 16.8882 4.439039 34.516918 -3.020363
2011-07-19 08:18:22 51°30.358 2°43.352 16.8777 4.43935 34.518935 -3.020363
2011-07-19 08:19:21 51°30.558 2°43.395 16.8612 4.438313 34.523067 -3.020363
2011-07-19 08:20:21 51°30.759 2°43.455 16.8465 4.437587 34.526448 -3.020363
2011-07-19 08:21:21 51°30.962 2°43.5 16.8174 4.43655 34.533363 -3.020363
2011-07-19 08:22:21 51°31.165 2°43.543 16.7911 4.434372 34.54145 -3.020363
2011-07-19 08:23:21 51°31.366 2°43.599 16.7458 4.431987 34.544963 -3.020363
2011-07-19 08:24:21 51°31.567 2°43.649 16.7316 4.428669 34.548687 -3.020363
2011-07-19 08:25:21 51°31.768 2°43.695 16.7186 4.427839 34.548401 -3.020363
2011-07-19 08:26:23 51°31.972 2°43.754 16.7115 4.426594 34.552154 -3.020363
2011-07-19 08:27:22 51°32.14 2°43.909 16.6962 4.42618 34.553406 -3.020363
2011-07-19 08:28:21 51°32.303 2°44.082 16.7191 4.425661 34.555843 -3.020363
2011-07-19 08:29:21 51°32.468 2°44.251 16.741 4.42732 34.550138 -3.020363
2011-07-19 08:30:21 51°32.639 2°44.406 16.7592 4.429187 34.548343 -3.020363
2011-07-19 08:31:21 51°32.808 2°44.57 16.7771 4.430639 34.546409 -3.020363
2011-07-19 08:32:21 51°32.977 2°44.733 16.7964 4.43178 34.543153 -3.020363
2011-07-19 08:33:21 51°33.146 2°44.894 16.8224 4.43375 34.540191 -3.020363
2011-07-19 08:34:21 51°33.329 2°45.008 16.8502 4.435721 34.536541 -3.020363
2011-07-19 08:35:21 51°33.513 2°45.118 16.8876 4.43821 34.530482 -3.020363
2011-07-19 08:36:21 51°33.698 2°45.233 16.9083 4.440906 34.526245 -3.020363
2011-07-19 08:37:21 51°33.885 2°45.339 16.9202 4.442565 34.525454 -3.020363
2011-07-19 08:38:21 51°34.068 2°45.46 16.9239 4.443291 34.524157 -3.020363
2011-07-19 08:39:21 51°34.256 2°45.567 16.9125 4.443706 34.52569 -3.020363
2011-07-19 08:40:21 51°34.443 2°45.678 16.8959 4.442877 34.529546 -3.020363
2011-07-19 08:41:21 51°34.639 2°45.746 16.8729 4.441632 34.533951 -3.020363
2011-07-19 08:42:22 51°34.843 2°45.795 16.8228 4.439869 34.542165 -3.020363
2011-07-19 08:43:21 51°35.037 2°45.854 16.7606 4.435721 34.5546 -3.020363
2011-07-19 08:44:21 51°35.234 2°45.906 16.6866 4.430847 34.560051 -3.020363
2011-07-19 08:45:21 51°35.429 2°45.967 16.6183 4.425039 34.569233 -3.020363
2011-07-19 08:46:21 51°35.62 2°46.05 16.5822 4.419232 34.577076 -3.020363
2011-07-19 08:47:21 51°35.81 2°46.136 16.5766 4.416639 34.573946 -3.020363
2011-07-19 08:48:22 51°36 2°46.232 16.5873 4.41612 34.574999 -3.020363
2011-07-19 08:49:22 51°36.189 2°46.32 16.614 4.417157 34.573592 -3.020363
2011-07-19 08:50:22 51°36.376 2°46.413 16.6489 4.419957 34.572247 -3.020363
2011-07-19 08:51:22 51°36.565 2°46.508 16.6802 4.423069 34.571538 -3.020363
2011-07-19 08:52:22 51°36.747 2°46.62 16.7155 4.426387 34.568466 -3.020363
2011-07-19 08:53:22 51°36.923 2°46.749 16.7435 4.429187 34.569238 -3.020363
2011-07-19 08:54:22 51°37.105 2°46.859 16.7504 4.43178 34.572382 -3.020363
2011-07-19 08:55:22 51°37.286 2°46.976 16.7659 4.432921 34.572595 -3.020363
2011-07-19 08:56:22 51°37.467 2°47.089 16.7819 4.434477 34.573647 -3.020363
2011-07-19 08:57:22 51°37.648 2°47.205 16.7903 4.43624 34.574422 -3.020363
2011-07-19 08:58:22 51°37.827 2°47.325 16.7948 4.436966 34.576583 -3.020363
2011-07-19 08:59:22 51°38.008 2°47.44 16.78 4.437484 34.579021 -3.020363
2011-07-19 09:00:22 51°38.19 2°47.548 16.7632 4.436344 34.58159 -3.020363
2011-07-19 09:01:22 51°38.368 2°47.666 16.7585 4.435307 34.582979 -3.020363
2011-07-19 09:02:22 51°38.55 2°47.771 16.7379 4.434062 34.586041 -3.020363
2011-07-19 09:03:22 51°38.73 2°47.879 16.7075 4.431988 34.585343 -3.020363
2011-07-19 09:04:22 51°38.909 2°47.99 16.6917 4.428669 34.582835 -3.020363
2011-07-19 09:05:22 51°39.086 2°48.104 16.6917 4.427943 34.578581 -3.020363
2011-07-19 09:06:22 51°39.264 2°48.211 16.6923 4.427321 34.578023 -3.020363
2011-07-19 09:07:22 51°39.44 2°48.322 16.6934 4.428047 34.577395 -3.020363
2011-07-19 09:08:22 51°39.619 2°48.424 16.7174 4.428462 34.578929 -3.020363
2011-07-19 09:09:22 51°39.798 2°48.525 16.7188 4.43064 34.578441 -3.020363
2011-07-19 09:10:22 51°39.975 2°48.624 16.7232 4.430951 34.582554 -3.020363
2011-07-19 09:11:22 51°40.153 2°48.734 16.7285 4.431366 34.583391 -3.020363
2011-07-19 09:12:22 51°40.331 2°48.84 16.7487 4.432506 34.58151 -3.020363
2011-07-19 09:13:22 51°40.511 2°48.948 16.7366 4.433647 34.586598 -3.020363
2011-07-19 09:14:22 51°40.69 2°49.056 16.7516 4.433751 34.58611 -3.020363
2011-07-19 09:15:22 51°40.869 2°49.165 16.7434 4.434166 34.589037 -3.020363
2011-07-19 09:16:22 51°41.046 2°49.273 16.7414 4.434373 34.589455 -3.020363
2011-07-19 09:17:22 51°41.222 2°49.389 16.7391 4.433958 34.5928 -3.020363
2011-07-19 09:18:22 51°41.4 2°49.494 16.7387 4.434581 34.591267 -3.020363
2011-07-19 09:19:22 51°41.587 2°49.558 16.7514 4.434166 34.59531 -3.020363
2011-07-19 09:20:22 51°41.773 2°49.61 16.7632 4.436033 34.594193 -3.020363
2011-07-19 09:21:22 51°41.93 2°49.427 16.7697 4.436862 34.595865 -3.020363
2011-07-19 09:22:22 51°42.076 2°49.19 16.7404 4.43707 34.598373 -3.020363
2011-07-19 09:23:22 51°42.226 2°48.958 16.7163 4.434166 34.599493 -3.020363
2011-07-19 09:24:22 51°42.37 2°48.718 16.6835 4.431262 34.597131 -3.020363
2011-07-19 09:25:22 51°42.42 2°48.387 16.6751 4.428358 34.594073 -3.020363
2011-07-19 09:26:22 51°42.343 2°48.057 16.6779 4.427736 34.591423 -3.020363
2011-07-19 09:27:22 51°42.161 2°47.833 16.6764 4.427632 34.589818 -3.020363
2011-07-19 09:28:22 51°41.94 2°47.754 16.6857 4.428151 34.588768 -3.020363
2011-07-19 09:29:22 51°41.716 2°47.675 16.6698 4.42898 34.591139 -3.020363
2011-07-19 09:30:22 51°41.496 2°47.563 16.6812 4.428151 34.591561 -3.020363
2011-07-19 09:31:22 51°41.277 2°47.43 16.6996 4.428462 34.592188 -3.020363
2011-07-19 09:32:21 51°41.061 2°47.324 16.7092 4.430536 34.593575 -3.020363
2011-07-19 09:33:22 51°40.835 2°47.211 16.7198 4.432092 34.596709 -3.020363
2011-07-19 09:34:22 51°40.614 2°47.101 16.7386 4.433233 34.599705 -3.020363
2011-07-19 09:35:22 51°40.389 2°47.025 16.7477 4.434892 34.598166 -3.020363
2011-07-19 09:36:22 51°40.165 2°46.933 16.7509 4.435929 34.593288 -3.020363
2011-07-19 09:37:22 51°39.941 2°46.827 16.7498 4.435514 34.592451 -3.020363
2011-07-19 09:38:22 51°39.72 2°46.703 16.7406 4.43427 34.589943 -3.020363
2011-07-19 09:39:22 51°39.5 2°46.584 16.7251 4.433751 34.58611 -3.020363
2011-07-19 09:40:22 51°39.285 2°46.441 16.7152 4.431677 34.588202 -3.020363
2011-07-19 09:41:22 51°39.074 2°46.279 16.7072 4.430847 34.583043 -3.020363
2011-07-19 09:42:22 51°38.865 2°46.106 16.7122 4.42981 34.581648 -3.020363
2011-07-19 09:43:22 51°38.654 2°45.94 16.6987 4.430328 34.580602 -3.020363
2011-07-19 09:44:22 51°38.427 2°45.867 16.7086 4.429084 34.581579 -3.020363
2011-07-19 09:45:22 51°38.197 2°45.799 16.7108 4.430225 34.578301 -3.020363
2011-07-19 09:46:22 51°37.971 2°45.697 16.7091 4.429291 34.575024 -3.020363
2011-07-19 09:47:22 51°37.753 2°45.55 16.715 4.429084 34.575303 -3.020363
2011-07-19 09:48:22 51°37.532 2°45.424 16.7025 4.429602 34.574955 -3.020363
2011-07-19 09:49:22 51°37.309 2°45.298 16.7035 4.428358 34.573838 -3.020363
2011-07-19 09:50:22 51°37.09 2°45.153 16.6931 4.42815 34.569933 -3.020363
2011-07-19 09:51:22 51°36.872 2°45.013 16.7296 4.427632 34.566097 -3.020363
2011-07-19 09:52:22 51°36.652 2°44.88 16.7701 4.430432 34.560605 -3.020363
2011-07-19 09:53:22 51°36.431 2°44.75 16.7871 4.434269 34.56279 -3.020363
2011-07-19 09:54:22 51°36.213 2°44.604 16.8067 4.438003 34.57659 -3.020363
2011-07-19 09:55:22 51°35.994 2°44.469 16.8039 4.43904 34.577292 -3.020363
2011-07-19 09:56:22 51°35.772 2°44.349 16.7715 4.438107 34.57819 -3.020363
2011-07-19 09:57:22 51°35.545 2°44.266 16.7757 4.436032 34.576091 -3.020363
2011-07-19 09:58:22 51°35.315 2°44.204 16.7451 4.435099 34.578383 -3.020363
2011-07-19 09:59:22 51°35.086 2°44.129 16.7116 4.429498 34.552453 -3.020363
2011-07-19 10:00:22 51°34.856 2°44.069 16.6655 4.426283 34.551525 -3.020363
2011-07-19 10:01:22 51°34.628 2°43.988 16.6255 4.421513 34.552341 -3.020363
2011-07-19 10:02:22 51°34.398 2°43.926 16.6071 4.418298 34.549334 -3.020363
2011-07-19 10:03:23 51°34.164 2°43.861 16.5974 4.416327 34.548844 -3.020363
2011-07-19 10:04:22 51°33.941 2°43.783 16.5917 4.415187 34.546538 -3.020363
2011-07-19 10:05:22 51°33.713 2°43.719 16.6115 4.414772 34.544302 -3.020363
2011-07-19 10:06:22 51°33.485 2°43.654 16.6476 4.416327 34.53697 -3.020363
2011-07-19 10:07:22 51°33.314 2°43.421 16.6972 4.419127 34.523803 -3.020363
2011-07-19 10:08:22 51°33.177 2°43.114 16.7367 4.422653 34.519802 -3.020363
2011-07-19 10:09:22 51°33.047 2°42.797 16.7732 4.426075 34.516304 -3.020363
2011-07-19 10:10:22 51°32.908 2°42.488 16.8112 4.42929 34.513095 -3.020363
2011-07-19 10:11:22 51°32.792 2°42.155 16.8476 4.432401 34.508303 -3.020363
2011-07-19 10:12:22 51°32.675 2°41.822 16.8808 4.458644 34.706459 -3.020363
2011-07-19 10:13:22 51°32.549 2°41.499 16.9371 4.462378 34.702779 -3.020363
2011-07-19 10:14:22 51°32.43 2°41.168 16.9518 4.466734 34.705227 -3.020363
2011-07-19 10:15:22 51°32.346 2°40.826 16.9329 4.467978 34.707716 -3.020363
2011-07-19 10:16:22 51°32.365 2°40.468 16.9117 4.467356 34.715511 -3.020363
2011-07-19 10:17:22 51°32.474 2°40.236 16.8885 4.465593 34.717556 -3.020363
2011-07-19 10:18:21 51°32.644 2°40.294 16.8566 4.462482 34.717609 -3.020363
2011-07-19 10:19:23 51°32.825 2°40.37 16.8146 4.459681 34.718988 -3.020363
2011-07-19 10:20:22 51°32.993 2°40.462 16.8215 4.457192 34.722391 -3.020363
2011-07-19 10:21:22 51°33.167 2°40.54 16.813 4.457088 34.724976 -3.020363
2011-07-19 10:22:21 51°33.338 2°40.624 16.7993 4.457192 34.728674 -3.020363
2011-07-19 10:23:21 51°33.509 2°40.718 16.7764 4.456155 34.732193 -3.020363
2011-07-19 10:24:22 51°33.685 2°40.795 16.7297 4.453666 34.739814 -3.020363
2011-07-19 10:25:21 51°33.85 2°40.887 16.6376 4.44931 34.754249 -3.020363
2011-07-19 10:26:21 51°34.021 2°40.964 16.6117 4.442465 34.756776 -3.020363
2011-07-19 10:27:22 51°34.19 2°41.059 16.5862 4.440495 34.755668 -3.020363
2011-07-19 10:28:21 51°34.356 2°41.14 16.5821 4.437798 34.757339 -3.020363
2011-07-19 10:29:21 51°34.527 2°41.22 16.5532 4.43728 34.756309 -3.020363
2011-07-19 10:30:22 51°34.698 2°41.31 16.55 4.434895 34.757902 -3.020363
2011-07-19 10:31:21 51°34.864 2°41.394 16.5589 4.43448 34.757078 -3.020363
2011-07-19 10:32:23 51°35.04 2°41.484 16.5393 4.435102 34.756906 -3.020363
2011-07-19 10:33:22 51°35.209 2°41.559 16.5458 4.433961 34.756751 -3.020363
2011-07-19 10:34:21 51°35.374 2°41.646 16.5844 4.434998 34.753884 -3.020363
2011-07-19 10:35:21 51°35.546 2°41.724 16.583 4.437695 34.75643 -3.020363
2011-07-19 10:36:22 51°35.716 2°41.818 16.5687 4.438317 34.759777 -3.020363
2011-07-19 10:37:21 51°35.883 2°41.904 16.5399 4.436554 34.761904 -3.020363
2011-07-19 10:38:21 51°36.055 2°41.983 16.5267 4.434376 34.761097 -3.020363
2011-07-19 10:39:23 51°36.232 2°42.072 16.518 4.432613 34.761117 -3.020363
2011-07-19 10:40:22 51°36.398 2°42.168 16.5278 4.432094 34.757268 -3.020363
2011-07-19 10:41:21 51°36.569 2°42.242 16.5319 4.432717 34.756391 -3.020363
2011-07-19 10:42:21 51°36.739 2°42.333 16.5402 4.432509 34.755979 -3.020363
2011-07-19 10:43:22 51°36.913 2°42.412 16.5479 4.433754 34.755635 -3.020363
2011-07-19 10:44:21 51°37.07 2°42.532 16.5715 4.435517 34.754211 -3.020363
2011-07-19 10:45:21 51°37.237 2°42.633 16.5914 4.437695 34.754319 -3.020363
2011-07-19 10:46:22 51°37.407 2°42.735 16.5876 4.438524 34.758079 -3.020363
2011-07-19 10:47:21 51°37.572 2°42.829 16.5877 4.43811 34.758661 -3.020363
2011-07-19 10:48:21 51°37.741 2°42.924 16.6002 4.438732 34.757788 -3.020363
2011-07-19 10:49:21 51°37.907 2°43.026 16.6126 4.44008 34.757655 -3.020363
2011-07-19 10:50:22 51°38.077 2°43.122 16.6129 4.441117 34.759014 -3.020363
2011-07-19 10:51:22 51°38.245 2°43.218 16.6277 4.441325 34.758021 -3.020363
2011-07-19 10:52:21 51°38.413 2°43.299 16.6518 4.443088 34.758013 -3.020363
2011-07-19 10:53:21 51°38.578 2°43.401 16.6573 4.444851 34.760113 -3.020363
2011-07-19 10:54:21 51°38.744 2°43.501 16.6667 4.446095 34.760481 -3.020363
2011-07-19 10:55:21 51°38.915 2°43.585 16.6839 4.447029 34.761635 -3.020363
2011-07-19 10:56:22 51°39.087 2°43.675 16.7042 4.448896 34.76254 -3.020363
2011-07-19 10:57:22 51°39.257 2°43.761 16.7107 4.450763 34.764147 -3.020363
2011-07-19 10:58:21 51°39.422 2°43.856 16.7144 4.451385 34.765384 -3.020363
2011-07-19 10:59:23 51°39.599 2°43.944 16.7184 4.451903 34.765013 -3.020363
2011-07-19 11:00:21 51°39.762 2°44.036 16.7081 4.451903 34.765013 -3.020363
2011-07-19 11:01:21 51°39.93 2°44.129 16.7112 4.451281 34.764477 -3.020363
2011-07-19 11:02:21 51°40.101 2°44.214 16.7007 4.45097 34.763859 -3.020363
2011-07-19 11:03:22 51°40.273 2°44.308 16.6897 4.450037 34.762003 -3.020363
2011-07-19 11:04:21 51°40.443 2°44.387 16.6833 4.448792 34.759528 -3.020363
2011-07-19 11:05:22 51°40.617 2°44.477 16.6737 4.447444 34.756847 -3.020363
2011-07-19 11:06:23 51°40.788 2°44.581 16.6573 4.446303 34.756683 -3.020363
2011-07-19 11:07:21 51°40.955 2°44.664 16.6502 4.444851 34.753795 -3.020363
2011-07-19 11:08:21 51°41.127 2°44.753 16.6396 4.44371 34.752228 -3.020363
2011-07-19 11:09:22 51°41.302 2°44.846 16.6288 4.442673 34.752271 -3.020363
2011-07-19 11:10:23 51°41.479 2°44.933 16.6218 4.441636 34.752315 -3.020363
2011-07-19 11:11:23 51°41.65 2°45.033 16.6154 4.44091 34.751574 -3.020363
2011-07-19 11:12:21 51°41.817 2°45.114 16.6095 4.440599 34.75236 -3.020363
2011-07-19 11:13:21 51°41.99 2°45.208 16.5971 4.440184 34.755753 -3.020363
2011-07-19 11:14:21 51°42.164 2°45.295 16.5919 4.439354 34.756212 -3.020363
2011-07-19 11:15:22 51°42.341 2°45.39 16.585 4.439147 34.760019 -3.020363
2011-07-19 11:16:21 51°42.512 2°45.481 16.5717 4.438628 34.763913 -3.020363
2011-07-19 11:17:22 51°42.686 2°45.575 16.5744 4.438006 34.768308 -3.020363
2011-07-19 11:18:22 51°42.86 2°45.672 16.5688 4.438732 34.774677 -3.020363
2011-07-19 11:19:21 51°43.029 2°45.77 16.5616 4.439251 34.779227 -3.020363
2011-07-19 11:20:21 51°43.204 2°45.852 16.5516 4.439251 34.784861 -3.020363
2011-07-19 11:21:21 51°43.376 2°45.944 16.5435 4.438836 34.791085 -3.020363
2011-07-19 11:22:22 51°43.555 2°45.975 16.5327 4.438525 34.796108 -3.020363
2011-07-19 11:23:21 51°43.7 2°45.775 16.5245 4.43811 34.799518 -3.020363
2011-07-19 11:24:22 51°43.824 2°45.504 16.5083 4.437799 34.805251 -3.020363
2011-07-19 11:25:21 51°43.955 2°45.256 16.5054 4.436555 34.808434 -3.020363
2011-07-19 11:26:22 51°44.085 2°44.991 16.4997 4.43614 34.809732 -3.020363
2011-07-19 11:27:21 51°44.215 2°44.743 16.5042 4.436555 34.810553 -3.020363
2011-07-19 11:28:21 51°44.351 2°44.499 16.5043 4.436451 34.81176 -3.020363
2011-07-19 11:29:21 51°44.474 2°44.235 16.5025 4.43614 34.811144 -3.020363
2011-07-19 11:30:21 51°44.451 2°43.904 16.5073 4.43614 34.809026 -3.020363
2011-07-19 11:31:21 51°44.259 2°43.729 16.5181 4.43614 34.804083 -3.020363
2011-07-19 11:32:21 51°44.028 2°43.708 16.5197 4.436555 34.798553 -3.020363
2011-07-19 11:33:23 51°43.786 2°43.699 16.5125 4.436451 34.795525 -3.020363
2011-07-19 11:34:21 51°43.562 2°43.67 16.515 4.436347 34.794614 -3.020363
2011-07-19 11:35:21 51°43.33 2°43.657 16.5149 4.43614 34.794909 -3.020363
2011-07-19 11:36:21 51°43.099 2°43.636 16.5221 4.43614 34.794909 -3.020363
2011-07-19 11:37:21 51°42.876 2°43.521 16.5213 4.436451 34.79482 -3.020363
2011-07-19 11:38:21 51°42.653 2°43.399 16.5214 4.436451 34.795525 -3.020363
2011-07-19 11:39:21 51°42.427 2°43.295 16.5296 4.436555 34.79432 -3.020363
2011-07-19 11:40:23 51°42.194 2°43.182 16.5329 4.437177 34.792731 -3.020363
2011-07-19 11:41:21 51°41.976 2°43.075 16.5366 4.437384 34.791732 -3.020363
2011-07-19 11:42:23 51°41.74 2°42.977 16.5455 4.437695 34.790234 -3.020363
2011-07-19 11:43:21 51°41.522 2°42.87 16.541 4.437384 34.783978 -3.020363
2011-07-19 11:44:21 51°41.297 2°42.757 16.5463 4.437799 34.787619 -3.020363
2011-07-19 11:45:21 51°41.07 2°42.661 16.5501 4.437591 34.78157 -3.020363
2011-07-19 11:46:21 51°40.846 2°42.548 16.5525 4.437799 34.778459 -3.020363
2011-07-19 11:47:22 51°40.619 2°42.447 16.5565 4.437073 34.772087 -3.020363
2011-07-19 11:48:21 51°40.401 2°42.332 16.5684 4.438317 34.775262 -3.020363
2011-07-19 11:49:21 51°40.175 2°42.23 16.5749 4.438628 34.771655 -3.020363
2011-07-19 11:50:21 51°39.951 2°42.118 16.5862 4.439251 34.768668 -3.020363
2011-07-19 11:51:21 51°39.726 2°42.016 16.5969 4.439977 34.765185 -3.020363
2011-07-19 11:52:21 51°39.502 2°41.91 16.6122 4.440495 34.761292 -3.020363
2011-07-19 11:53:22 51°39.275 2°41.785 16.6259 4.441428 34.756821 -3.020363
2011-07-19 11:54:22 51°39.049 2°41.679 16.6448 4.44091 34.739634 -3.020363
2011-07-19 11:55:21 51°38.83 2°41.565 16.6573 4.444332 34.755572 -3.020363
2011-07-19 11:56:21 51°38.607 2°41.449 16.6595 4.445266 34.756726 -3.020363
2011-07-19 11:57:21 51°38.384 2°41.336 16.6711 4.445888 34.755858 -3.020363
2011-07-19 11:58:21 51°38.162 2°41.229 16.6774 4.446821 34.756311 -3.020363
2011-07-19 11:59:21 51°37.942 2°41.109 16.6808 4.447547 34.757755 -3.020363
2011-07-19 12:00:22 51°37.718 2°40.985 16.6836 4.448066 34.758085 -3.020363
2011-07-19 12:01:22 51°37.496 2°40.881 16.6844 4.448273 34.758497 -3.020363
2011-07-19 12:02:21 51°37.28 2°40.768 16.6772 4.44817 34.760395 -3.020363
2011-07-19 12:03:21 51°37.06 2°40.655 16.6719 4.447755 34.760272 -3.020363
2011-07-19 12:04:21 51°36.841 2°40.535 16.6614 4.447029 34.760933 -3.020363
2011-07-19 12:05:21 51°36.622 2°40.423 16.6504 4.446407 34.760398 -3.020363
2011-07-19 12:06:21 51°36.403 2°40.306 16.6387 4.445162 34.761434 -3.020363
2011-07-19 12:07:22 51°36.179 2°40.199 16.6237 4.44371 34.760655 -3.020363
2011-07-19 12:08:21 51°35.963 2°40.093 16.6028 4.442154 34.761076 -3.020363
2011-07-19 12:09:21 51°35.745 2°39.978 16.5882 4.440391 34.760383 -3.020363
2011-07-19 12:10:21 51°35.525 2°39.871 16.5719 4.438317 34.761184 -3.020363
2011-07-19 12:11:21 51°35.308 2°39.756 16.5615 4.437384 34.758626 -3.020363
2011-07-19 12:12:21 51°35.091 2°39.649 16.5506 4.436139 34.759671 -3.020363
2011-07-19 12:13:21 51°34.873 2°39.541 16.5455 4.435413 34.75682 -3.020363
2011-07-19 12:14:22 51°34.657 2°39.404 16.5535 4.434895 34.757198 -3.020363
2011-07-19 12:15:21 51°34.449 2°39.278 16.5538 4.435517 34.754915 -3.020363
2011-07-19 12:16:21 51°34.235 2°39.151 16.5452 4.435309 34.75591 -3.020363
2011-07-19 12:17:21 51°34.018 2°39.042 16.5435 4.43448 34.756373 -3.020363
2011-07-19 12:18:21 51°33.807 2°38.909 16.5209 4.433857 34.757954 -3.020363
2011-07-19 12:19:21 51°33.589 2°38.794 16.5142 4.432613 34.756889 -3.020363
2011-07-19 12:20:21 51°33.377 2°38.661 16.4962 4.431576 34.757647 -3.020363
2011-07-19 12:21:22 51°33.16 2°38.539 16.4931 4.430331 34.759404 -3.020363
2011-07-19 12:22:21 51°32.948 2°38.423 16.4962 4.429709 34.758873 -3.020363
2011-07-19 12:23:21 51°32.734 2°38.301 16.505 4.43002 34.755261 -3.020363
2011-07-19 12:24:21 51°32.521 2°38.174 16.502 4.430331 34.753059 -3.020363
2011-07-19 12:25:21 51°32.306 2°38.058 16.4943 4.430331 34.757289 -3.020363
2011-07-19 12:26:21 51°32.091 2°37.943 16.4922 4.429502 34.75423 -3.020363
2011-07-19 12:27:21 51°31.875 2°37.831 16.483 4.428776 34.755608 -3.020363
2011-07-19 12:28:22 51°31.655 2°37.715 16.4769 4.428361 34.754784 -3.020363
2011-07-19 12:29:21 51°31.443 2°37.599 16.4762 4.427842 34.753753 -3.020363
2011-07-19 12:30:21 51°31.224 2°37.494 16.4669 4.427324 34.754839 -3.020363
2011-07-19 12:31:21 51°31.007 2°37.377 16.4687 4.426909 34.754015 -3.020363
2011-07-19 12:32:21 51°30.792 2°37.254 16.4664 4.427013 34.756338 -3.020363
2011-07-19 12:33:21 51°30.573 2°37.152 16.4629 4.426805 34.75522 -3.020363
2011-07-19 12:34:22 51°30.354 2°37.035 16.4642 4.42639 34.756513 -3.020363
2011-07-19 12:35:22 51°30.138 2°36.93 16.4731 4.426909 34.75472 -3.020363
2011-07-19 12:36:21 51°29.928 2°36.815 16.4909 4.42805 34.75346 -3.020363
2011-07-19 12:37:21 51°29.711 2°36.72 16.5163 4.429294 34.750293 -3.020363
2011-07-19 12:38:21 51°29.497 2°36.605 16.5396 4.431368 34.746666 -3.020363
2011-07-19 12:39:21 51°29.283 2°36.501 16.5554 4.433028 34.74363 -3.020363
2011-07-19 12:40:22 51°29.083 2°36.615 16.5754 4.43365 34.739238 -3.020363
2011-07-19 12:41:21 51°28.93 2°36.848 16.6075 4.435205 34.733193 -3.020363
2011-07-19 12:42:21 51°28.771 2°37.078 16.6869 4.439872 34.730548 -3.020363
2011-07-19 12:43:23 51°28.598 2°37.304 16.7509 4.445991 34.718915 -3.020363
2011-07-19 12:44:21 51°28.428 2°37.502 16.7863 4.45128 34.718975 -3.020363
2011-07-19 12:45:22 51°28.26 2°37.731 16.8179 4.453458 34.710748 -3.020363
2011-07-19 12:46:21 51°28.095 2°37.948 16.828 4.454806 34.698789 -3.020363
2011-07-19 12:47:21 51°27.925 2°38.162 16.84 4.456673 34.708099 -3.020363
2011-07-19 12:48:22 51°27.756 2°38.389 16.869 4.458748 34.710151 -3.020363
2011-07-19 12:49:21 51°27.591 2°38.604 16.9023 4.460199 34.69912 -3.020363
2011-07-19 12:50:22 51°27.423 2°38.83 16.95 4.462792 34.689695 -3.020363
2011-07-19 12:51:21 51°27.256 2°39.044 16.9854 4.467252 34.688894 -3.020363
2011-07-19 12:52:21 51°27.091 2°39.267 17.0196 4.469948 34.67903 -3.020363
2011-07-19 12:53:21 51°26.928 2°39.494 17.036 4.471608 34.674731 -3.020363
2011-07-19 12:54:21 51°26.759 2°39.711 17.0178 4.473371 34.682423 -3.020363
2011-07-19 12:55:21 51°26.597 2°39.941 17.0033 4.472541 34.683532 -3.020363
2011-07-19 12:56:21 51°26.43 2°40.163 17.0238 4.471401 34.687486 -3.020363
2011-07-19 12:57:22 51°26.264 2°40.393 17.0439 4.472541 34.672446 -3.020363
2011-07-19 12:58:21 51°26.104 2°40.615 17.0586 4.472956 34.660125 -3.020363
2011-07-19 12:59:21 51°25.948 2°40.848 17.1427 4.477312 34.672326 -3.020363
2011-07-19 13:00:22 51°25.783 2°41.074 17.1529 4.481876 34.655927 -3.020363
2011-07-19 13:01:22 51°25.621 2°41.298 17.1841 4.481253 34.639503 -3.020363
2011-07-19 13:02:21 51°25.469 2°41.529 17.2091 4.482394 34.625264 -3.020363
2011-07-19 13:03:22 51°25.303 2°41.754 17.2233 4.482808 34.608897 -3.020363
2011-07-19 13:04:21 51°25.151 2°41.986 17.2387 4.48229 34.592726 -3.020363
2011-07-19 13:05:22 51°24.992 2°42.225 17.2502 4.481978 34.577674 -3.020363
2011-07-19 13:06:21 51°24.829 2°42.443 17.2479 4.481563 34.565853 -3.020363
2011-07-19 13:07:21 51°24.666 2°42.67 17.2409 4.481044 34.560687 -3.020363
2011-07-19 13:08:22 51°24.511 2°42.918 17.2517 4.480422 34.561485 -3.020363
2011-07-19 13:09:21 51°24.362 2°43.159 17.2491 4.481356 34.564061 -3.020363
2011-07-19 13:10:21 51°24.203 2°43.393 17.2544 4.481978 34.563949 -3.020363
2011-07-19 13:11:22 51°24.048 2°43.637 17.2625 4.483015 34.571536 -3.020363
2011-07-19 13:12:21 51°23.899 2°43.877 17.2702 4.484779 34.577846 -3.020363
2011-07-19 13:13:22 51°23.735 2°44.111 17.2901 4.486023 34.581735 -3.020363
2011-07-19 13:14:21 51°23.583 2°44.349 17.3325 4.487683 34.576863 -3.020363
2011-07-19 13:15:21 51°23.455 2°44.616 17.4589 4.491416 34.565247 -3.020363
2011-07-19 13:16:21 51°23.339 2°44.899 17.5046 4.497639 34.514416 -3.020363
2011-07-19 13:17:22 51°23.167 2°45.084 17.5027 4.497535 34.488362 -3.020363
2011-07-19 13:18:22 51°22.952 2°45.106 17.4749 4.496497 34.483529 -3.020363
2011-07-19 13:19:22 51°22.738 2°45.128 17.4444 4.495149 34.49438 -3.020363
2011-07-19 13:20:21 51°22.533 2°45.196 17.4241 4.495461 34.527699 -3.020363
2011-07-19 13:21:23 51°22.344 2°45.38 17.4187 4.496914 34.554519 -3.020363
2011-07-19 13:22:21 51°22.172 2°45.569 17.3798 4.498262 34.567491 -3.020363
2011-07-19 13:23:21 51°22.003 2°45.788 17.3383 4.496603 34.586001 -3.020363
2011-07-19 13:24:21 51°21.829 2°45.996 17.3062 4.493699 34.598615 -3.020363
2011-07-19 13:25:22 51°21.658 2°46.215 17.3067 4.491521 34.602442 -3.020363
2011-07-19 13:26:23 51°21.497 2°46.46 17.3294 4.491832 34.5969 -3.020363
2011-07-19 13:27:21 51°21.337 2°46.677 17.3391 4.494632 34.60187 -3.020363
2011-07-19 13:28:22 51°21.175 2°46.919 17.3198 4.494944 34.60935 -3.020363
2011-07-19 13:29:21 51°21.029 2°47.172 17.3327 4.494944 34.612777 -3.020363
2011-07-19 13:30:21 51°20.87 2°47.415 17.2983 4.495877 34.619458 -3.020363
2011-07-19 13:31:22 51°20.712 2°47.663 17.4322 4.494114 34.609046 -3.020363
2011-07-19 13:32:21 51°20.564 2°47.905 17.4849 4.499299 34.553897 -3.020363
2011-07-19 13:33:22 51°20.403 2°48.14 17.4698 4.496809 34.504562 -3.020363
2011-07-19 13:34:21 51°20.25 2°48.372 17.4891 4.493074 34.47655 -3.020363
2011-07-19 13:35:23 51°20.09 2°48.619 17.529 4.492037 34.449972 -3.020363
2011-07-19 13:36:21 51°19.934 2°48.837 17.6425 4.494526 34.418453 -3.020363
2011-07-19 13:37:22 51°19.777 2°49.076 17.8244 0.13052 0.764901 -3.020363
2011-07-19 13:38:21 51°19.62 2°49.307 17.8808 0.07664 0.439631 -3.020363
2011-07-19 13:39:21 51°19.461 2°49.545 17.9341 0.064404 0.367247 -3.020363
2011-07-19 13:40:22 51°19.29 2°49.771 17.9912 0.057619 0.327364 -3.020363
2011-07-19 13:41:21 51°19.136 2°50.009 18.0407 0.052992 0.300281 -3.020363
2011-07-19 13:42:21 51°18.978 2°50.254 18.156 0.049702 0.281067 -3.020363
2011-07-19 13:43:22 51°18.81 2°50.479 18.2402 0.047337 0.267269 -3.020363
2011-07-19 13:44:23 51°18.651 2°50.718 18.2933 0.045281 0.255288 -3.020363
2011-07-19 13:45:21 51°18.49 2°50.927 18.3641 0.043636 0.245712 -3.020363
2011-07-19 13:46:23 51°18.322 2°51.163 18.444 0.042094 0.236744 -3.020363
2011-07-19 13:47:21 51°18.159 2°51.369 18.5358 0.04086 0.229565 -3.020363
2011-07-19 13:48:21 51°17.989 2°51.581 18.6385 0.039729 0.222996 -3.020363
2011-07-19 13:49:21 51°17.808 2°51.756 18.7036 0.038701 0.217022 -3.020363
2011-07-19 13:50:22 51°17.627 2°51.946 18.7777 0.037775 0.211647 -3.020363
2011-07-19 13:51:23 51°17.442 2°52.115 18.8363 0.036953 0.20687 -3.020363
2011-07-19 13:52:21 51°17.267 2°52.278 18.9257 0.03613 0.202102 -3.020363
2011-07-19 13:53:22 51°17.085 2°52.452 18.9883 0.035514 0.198512 -3.020363
2011-07-19 13:54:21 51°16.902 2°52.599 19.0384 0.034897 0.194928 -3.020363
2011-07-19 13:55:21 51°16.72 2°52.765 19.131 0.03428 0.191347 -3.020363
2011-07-19 13:56:22 51°16.531 2°52.928 19.1865 0.033766 0.188358 -3.020363
2011-07-19 13:57:21 51°16.349 2°53.078 19.2622 0.033355 0.185954 -3.020363
2011-07-19 13:58:22 51°16.163 2°53.252 19.3106 0.03284 0.182974 -3.020363
2011-07-19 13:59:21 51°15.981 2°53.407 19.3925 0.032429 0.180576 -3.020363
2011-07-19 14:00:21 51°15.795 2°53.549 19.4251 0.032018 0.178187 -3.020363
2011-07-19 14:01:21 51°15.613 2°53.711 19.5011 0.031607 0.175796 -3.020363
2011-07-19 14:02:21 51°15.437 2°53.889 19.5589 0.031298 0.173992 -3.020363
2011-07-19 14:03:22 51°15.257 2°54.072 19.6414 0.03099 0.172188 -3.020363
2011-07-19 14:04:23 51°15.086 2°54.272 19.6931 0.030681 0.170389 -3.020363
2011-07-19 14:05:22 51°14.925 2°54.486 19.7722 0.030373 0.16859 -3.020363
2011-07-19 14:06:21 51°14.771 2°54.718 19.8232 0.030065 0.166799 -3.020363
2011-07-19 14:07:22 51°14.607 2°54.95 19.8632 0.029756 0.165008 -3.020363
2011-07-19 14:08:22 51°14.434 2°55.134 19.8548 0.029551 0.163791 -3.020363
2011-07-19 14:09:22 51°14.279 2°55.284 19.9605 0.029242 0.162012 -3.020363
2011-07-19 14:10:22 51°14.167 2°55.382 20.0025 0.029036 0.160804 -3.020363
2011-07-19 14:11:23 51°14.056 2°55.467 20.0625 0.028831 0.159597 -3.020363
2011-07-19 14:12:22 51°13.95 2°55.543 20.1228 0.028522 0.157822 -3.020363
2011-07-19 14:13:22 51°13.844 2°55.618 20.1758 0.028317 0.156622 -3.020363
2011-07-19 14:14:21 51°13.764 2°55.705 20.2451 0.028214 0.155996 -3.020363
2011-07-19 14:15:22 51°13.709 2°55.802 20.2936 0.028008 0.154798 -3.020363
2011-07-19 14:16:22 51°13.668 2°55.894 20.3516 0.027803 0.153601 -3.020363
2011-07-19 14:17:21 51°13.645 2°55.974 20.42 0.027597 0.152408 -3.020363